createdAt,value
2017-01-05T00:00:02.062Z,59
2017-01-05T00:01:08.088Z,59
2017-01-05T00:02:14.111Z,59
2017-01-05T00:03:20.130Z,59
2017-01-05T00:04:26.142Z,59
2017-01-05T00:05:32.169Z,59
2017-01-05T00:06:38.185Z,59
2017-01-05T00:07:44.200Z,59
2017-01-05T00:08:50.211Z,59
2017-01-05T00:09:56.236Z,59
2017-01-05T00:11:02.253Z,59
2017-01-05T00:12:08.269Z,59
2017-01-05T00:13:14.292Z,59
2017-01-05T00:14:20.317Z,59
2017-01-05T00:15:26.344Z,59
2017-01-05T00:16:32.363Z,59
2017-01-05T00:17:38.386Z,59
2017-01-05T00:18:44.410Z,59
2017-01-05T00:19:50.426Z,59
2017-01-05T00:20:56.442Z,59
2017-01-05T00:22:02.468Z,60
2017-01-05T00:23:08.493Z,60
2017-01-05T00:24:14.504Z,60
2017-01-05T00:25:20.520Z,60
2017-01-05T00:26:26.540Z,60
2017-01-05T00:27:32.567Z,60
2017-01-05T00:28:38.586Z,60
2017-01-05T00:29:44.603Z,60
2017-01-05T00:30:50.629Z,60
2017-01-05T00:31:56.657Z,60
2017-01-05T00:33:02.669Z,61
2017-01-05T00:34:08.687Z,61
2017-01-05T00:35:14.700Z,61
2017-01-05T00:36:20.723Z,61
2017-01-05T00:37:26.740Z,61
2017-01-05T00:38:32.757Z,62
2017-01-05T00:39:38.779Z,62
2017-01-05T00:40:44.797Z,63
2017-01-05T00:41:50.815Z,63
2017-01-05T00:42:56.835Z,64
2017-01-05T00:44:02.858Z,65
2017-01-05T00:45:08.870Z,65
2017-01-05T00:46:14.886Z,65
2017-01-05T00:47:20.910Z,66
2017-01-05T00:48:26.929Z,66
2017-01-05T00:49:32.951Z,66
2017-01-05T00:50:38.966Z,66
2017-01-05T00:51:44.989Z,66
2017-01-05T00:52:51.004Z,67
2017-01-05T00:53:57.022Z,67
2017-01-05T00:55:03.037Z,67
2017-01-05T00:56:09.060Z,67
2017-01-05T00:57:15.088Z,67
2017-01-05T00:58:21.106Z,67
2017-01-05T00:59:27.122Z,67
2017-01-05T01:00:33.152Z,67
2017-01-05T01:01:39.168Z,67
2017-01-05T01:02:45.199Z,67
2017-01-05T01:03:51.217Z,67
2017-01-05T01:04:57.235Z,66
2017-01-05T01:06:03.258Z,66
2017-01-05T01:07:09.267Z,65
2017-01-05T01:08:15.289Z,65
2017-01-05T01:09:21.317Z,63
2017-01-05T01:10:27.335Z,62
2017-01-05T01:11:33.350Z,61
2017-01-05T01:12:39.365Z,61
2017-01-05T01:13:45.396Z,60
2017-01-05T01:14:51.417Z,60
2017-01-05T01:15:57.437Z,60
2017-01-05T01:17:03.465Z,60
2017-01-05T01:18:09.488Z,60
2017-01-05T01:19:15.504Z,59
2017-01-05T01:20:21.519Z,59
2017-01-05T01:21:27.536Z,59
2017-01-05T01:22:33.552Z,59
2017-01-05T01:23:39.573Z,59
2017-01-05T01:24:45.598Z,59
2017-01-05T01:25:51.621Z,59
2017-01-05T01:26:57.635Z,59
2017-01-05T01:28:03.658Z,59
2017-01-05T01:29:09.676Z,59
2017-01-05T01:30:15.702Z,60
2017-01-05T01:31:21.715Z,60
2017-01-05T01:32:27.732Z,60
2017-01-05T01:33:33.760Z,60
2017-01-05T01:34:39.774Z,60
2017-01-05T01:35:45.789Z,60
2017-01-05T01:36:51.800Z,60
2017-01-05T01:37:57.829Z,60
2017-01-05T01:39:03.844Z,60
2017-01-05T01:40:09.858Z,60
2017-01-05T01:41:15.881Z,60
2017-01-05T01:42:21.907Z,60
2017-01-05T01:43:27.925Z,60
2017-01-05T01:44:33.946Z,60
2017-01-05T01:45:39.973Z,60
2017-01-05T01:46:45.981Z,59
2017-01-05T01:47:52.002Z,59
2017-01-05T01:48:58.018Z,59
2017-01-05T01:50:04.042Z,59
2017-01-05T01:51:10.058Z,59
2017-01-05T01:52:16.079Z,59
2017-01-05T01:53:22.092Z,59
2017-01-05T01:54:28.111Z,59
2017-01-05T01:55:34.122Z,59
2017-01-05T01:56:40.135Z,59
2017-01-05T01:57:46.153Z,59
2017-01-05T01:58:52.180Z,59
2017-01-05T01:59:58.208Z,59
2017-01-05T02:01:04.230Z,59
2017-01-05T02:02:10.246Z,59
2017-01-05T02:03:16.270Z,59
2017-01-05T02:04:22.285Z,59
2017-01-05T02:05:28.299Z,60
2017-01-05T02:06:34.312Z,60
2017-01-05T02:07:40.338Z,59
2017-01-05T02:08:46.362Z,60
2017-01-05T02:09:52.383Z,59
2017-01-05T02:10:58.405Z,60
2017-01-05T02:12:04.429Z,59
2017-01-05T02:13:10.448Z,60
2017-01-05T02:14:16.466Z,60
2017-01-05T02:15:22.486Z,60
2017-01-05T02:16:28.504Z,60
2017-01-05T02:17:34.528Z,59
2017-01-05T02:18:40.552Z,59
2017-01-05T02:19:46.575Z,59
2017-01-05T02:20:52.589Z,59
2017-01-05T02:21:58.607Z,59
2017-01-05T02:23:04.618Z,59
2017-01-05T02:24:10.641Z,59
2017-01-05T02:25:16.657Z,59
2017-01-05T02:26:22.676Z,59
2017-01-05T02:27:28.697Z,59
2017-01-05T02:28:34.725Z,59
2017-01-05T02:29:40.741Z,59
2017-01-05T02:30:46.763Z,59
2017-01-05T02:31:52.780Z,59
2017-01-05T02:32:58.796Z,59
2017-01-05T02:34:04.812Z,59
2017-01-05T02:35:10.829Z,59
2017-01-05T02:36:16.843Z,59
2017-01-05T02:37:22.865Z,59
2017-01-05T02:38:28.879Z,59
2017-01-05T02:39:34.895Z,59
2017-01-05T02:40:40.918Z,59
2017-01-05T02:41:46.940Z,59
2017-01-05T02:42:52.961Z,59
2017-01-05T02:43:58.977Z,59
2017-01-05T02:45:05.002Z,59
2017-01-05T02:46:11.023Z,59
2017-01-05T02:47:17.043Z,59
2017-01-05T02:48:23.064Z,59
2017-01-05T02:49:29.092Z,59
2017-01-05T02:50:35.102Z,59
2017-01-05T02:51:41.113Z,59
2017-01-05T02:52:47.128Z,59
2017-01-05T02:53:52.493Z,59
2017-01-05T02:54:58.508Z,59
2017-01-05T02:56:04.528Z,59
2017-01-05T02:57:10.550Z,59
2017-01-05T02:58:16.580Z,59
2017-01-05T02:59:22.605Z,59
2017-01-05T03:00:28.622Z,59
2017-01-05T03:01:34.638Z,59
2017-01-05T03:02:40.655Z,59
2017-01-05T03:03:46.683Z,59
2017-01-05T03:04:52.705Z,59
2017-01-05T03:05:58.727Z,59
2017-01-05T03:07:04.753Z,59
2017-01-05T03:08:10.769Z,59
2017-01-05T03:09:16.780Z,59
2017-01-05T03:10:22.809Z,59
2017-01-05T03:11:28.827Z,59
2017-01-05T03:12:34.850Z,59
2017-01-05T03:13:40.879Z,59
2017-01-05T03:14:46.895Z,60
2017-01-05T03:15:52.910Z,60
2017-01-05T03:16:58.930Z,60
2017-01-05T03:18:04.951Z,60
2017-01-05T03:19:10.969Z,60
2017-01-05T03:20:16.983Z,60
2017-01-05T03:21:23.006Z,60
2017-01-05T03:22:29.038Z,60
2017-01-05T03:23:35.048Z,60
2017-01-05T03:24:41.070Z,60
2017-01-05T03:25:47.093Z,60
2017-01-05T03:26:53.104Z,60
2017-01-05T03:27:59.112Z,60
2017-01-05T03:29:05.133Z,60
2017-01-05T03:30:11.155Z,60
2017-01-05T03:31:17.172Z,60
2017-01-05T03:32:23.190Z,60
2017-01-05T03:33:29.213Z,60
2017-01-05T03:34:35.228Z,60
2017-01-05T03:35:41.238Z,59
2017-01-05T03:36:47.260Z,59
2017-01-05T03:37:53.279Z,59
2017-01-05T03:38:59.297Z,59
2017-01-05T03:40:05.316Z,59
2017-01-05T03:41:11.329Z,59
2017-01-05T03:42:17.348Z,59
2017-01-05T03:43:23.373Z,59
2017-01-05T03:44:29.384Z,59
2017-01-05T03:45:35.399Z,59
2017-01-05T03:46:41.422Z,59
2017-01-05T03:47:47.442Z,59
2017-01-05T03:48:53.458Z,59
2017-01-05T03:49:59.480Z,59
2017-01-05T03:51:05.503Z,59
2017-01-05T03:52:11.533Z,59
2017-01-05T03:53:17.553Z,59
2017-01-05T03:54:23.571Z,58
2017-01-05T03:55:29.579Z,58
2017-01-05T03:56:35.599Z,58
2017-01-05T03:57:41.618Z,59
2017-01-05T03:58:47.634Z,59
2017-01-05T03:59:53.659Z,59
2017-01-05T04:00:59.677Z,59
2017-01-05T04:02:05.694Z,59
2017-01-05T04:03:11.711Z,59
2017-01-05T04:04:17.729Z,59
2017-01-05T04:05:23.748Z,59
2017-01-05T04:06:29.771Z,59
2017-01-05T04:07:35.798Z,59
2017-01-05T04:08:41.821Z,59
2017-01-05T04:09:47.843Z,59
2017-01-05T04:10:53.870Z,59
2017-01-05T04:11:59.894Z,59
2017-01-05T04:13:05.915Z,59
2017-01-05T04:14:11.934Z,59
2017-01-05T04:15:17.960Z,59
2017-01-05T04:16:23.981Z,59
2017-01-05T04:17:30.009Z,59
2017-01-05T04:18:36.030Z,59
2017-01-05T04:19:42.052Z,59
2017-01-05T04:20:48.074Z,59
2017-01-05T04:21:54.100Z,59
2017-01-05T04:23:00.109Z,59
2017-01-05T04:24:06.132Z,59
2017-01-05T04:25:12.157Z,59
2017-01-05T04:26:18.187Z,59
2017-01-05T04:27:24.204Z,59
2017-01-05T04:28:30.219Z,59
2017-01-05T04:29:36.245Z,58
2017-01-05T04:30:42.258Z,58
2017-01-05T04:31:48.274Z,58
2017-01-05T04:32:54.300Z,58
2017-01-05T04:34:00.322Z,58
2017-01-05T04:35:06.332Z,58
2017-01-05T04:36:12.363Z,58
2017-01-05T04:37:18.388Z,58
2017-01-05T04:38:24.413Z,58
2017-01-05T04:39:30.424Z,58
2017-01-05T04:40:36.449Z,57
2017-01-05T04:41:42.481Z,57
2017-01-05T04:42:48.494Z,57
2017-01-05T04:43:54.517Z,57
2017-01-05T04:45:00.542Z,57
2017-01-05T04:46:06.570Z,57
2017-01-05T04:47:12.585Z,57
2017-01-05T04:48:18.607Z,57
2017-01-05T04:49:24.618Z,57
2017-01-05T04:50:30.642Z,57
2017-01-05T04:51:36.663Z,57
2017-01-05T04:52:42.690Z,57
2017-01-05T04:53:48.713Z,57
2017-01-05T04:54:54.731Z,57
2017-01-05T04:56:00.746Z,57
2017-01-05T04:57:06.767Z,57
2017-01-05T04:58:12.792Z,57
2017-01-05T04:59:18.809Z,57
2017-01-05T05:00:24.840Z,57
2017-01-05T05:01:30.865Z,58
2017-01-05T05:02:36.891Z,58
2017-01-05T05:03:42.907Z,57
2017-01-05T05:04:48.926Z,58
2017-01-05T05:05:54.953Z,57
2017-01-05T05:07:00.978Z,57
2017-01-05T05:08:07.006Z,58
2017-01-05T05:09:13.029Z,58
2017-01-05T05:10:19.054Z,58
2017-01-05T05:11:25.070Z,58
2017-01-05T05:12:31.095Z,58
2017-01-05T05:13:37.125Z,58
2017-01-05T05:14:43.146Z,58
2017-01-05T05:15:49.168Z,58
2017-01-05T05:16:55.185Z,58
2017-01-05T05:18:01.206Z,58
2017-01-05T05:19:07.231Z,58
2017-01-05T05:20:13.254Z,58
2017-01-05T05:21:19.276Z,58
2017-01-05T05:22:25.298Z,58
2017-01-05T05:23:31.322Z,58
2017-01-05T05:24:37.342Z,58
2017-01-05T05:25:43.362Z,58
2017-01-05T05:26:49.386Z,58
2017-01-05T05:27:55.407Z,58
2017-01-05T05:29:01.422Z,58
2017-01-05T05:30:07.439Z,58
2017-01-05T05:31:13.463Z,58
2017-01-05T05:32:19.489Z,58
2017-01-05T05:33:25.506Z,58
2017-01-05T05:34:31.530Z,58
2017-01-05T05:35:37.553Z,58
2017-01-05T05:36:43.574Z,58
2017-01-05T05:37:49.599Z,58
2017-01-05T05:38:55.623Z,58
2017-01-05T05:40:01.646Z,58
2017-01-05T05:41:07.661Z,58
2017-01-05T05:42:13.676Z,58
2017-01-05T05:43:19.700Z,58
2017-01-05T05:44:25.726Z,58
2017-01-05T05:45:31.744Z,58
2017-01-05T05:46:37.768Z,58
2017-01-05T05:47:43.792Z,59
2017-01-05T05:48:49.815Z,59
2017-01-05T05:49:55.845Z,59
2017-01-05T05:51:01.853Z,59
2017-01-05T05:52:07.884Z,59
2017-01-05T05:53:13.902Z,59
2017-01-05T05:54:19.928Z,59
2017-01-05T05:55:25.952Z,59
2017-01-05T05:56:31.969Z,59
2017-01-05T05:57:37.992Z,59
2017-01-05T05:58:44.011Z,59
2017-01-05T05:59:50.037Z,59
2017-01-05T06:00:56.062Z,59
2017-01-05T06:02:02.083Z,59
2017-01-05T06:03:08.096Z,59
2017-01-05T06:04:14.127Z,59
2017-01-05T06:05:20.153Z,59
2017-01-05T06:06:25.515Z,59
2017-01-05T06:07:31.530Z,59
2017-01-05T06:08:37.560Z,59
2017-01-05T06:09:43.576Z,59
2017-01-05T06:10:49.594Z,59
2017-01-05T06:11:55.607Z,59
2017-01-05T06:13:01.638Z,59
2017-01-05T06:14:07.657Z,59
2017-01-05T06:15:13.686Z,59
2017-01-05T06:16:19.706Z,59
2017-01-05T06:17:25.729Z,59
2017-01-05T06:18:31.748Z,59
2017-01-05T06:19:37.778Z,59
2017-01-05T06:20:43.795Z,59
2017-01-05T06:21:49.813Z,59
2017-01-05T06:22:55.836Z,59
2017-01-05T06:24:01.860Z,58
2017-01-05T06:25:07.887Z,58
2017-01-05T06:26:13.903Z,58
2017-01-05T06:27:19.929Z,58
2017-01-05T06:28:25.955Z,58
2017-01-05T06:29:31.984Z,58
2017-01-05T06:30:37.997Z,58
2017-01-05T06:31:44.021Z,58
2017-01-05T06:32:50.047Z,58
2017-01-05T06:33:56.061Z,58
2017-01-05T06:35:02.079Z,58
2017-01-05T06:36:08.099Z,58
2017-01-05T06:37:14.131Z,58
2017-01-05T06:38:20.140Z,58
2017-01-05T06:39:26.173Z,58
2017-01-05T06:40:32.198Z,58
2017-01-05T06:41:38.211Z,58
2017-01-05T06:42:44.229Z,58
2017-01-05T06:43:50.271Z,58
2017-01-05T06:44:56.282Z,58
2017-01-05T06:46:02.309Z,58
2017-01-05T06:47:08.332Z,58
2017-01-05T06:48:14.350Z,58
2017-01-05T06:49:20.375Z,58
2017-01-05T06:50:26.403Z,58
2017-01-05T06:51:32.421Z,58
2017-01-05T06:52:38.439Z,58
2017-01-05T06:53:44.464Z,58
2017-01-05T06:54:50.487Z,58
2017-01-05T06:55:56.504Z,58
2017-01-05T06:57:02.529Z,58
2017-01-05T06:58:08.555Z,58
2017-01-05T06:59:14.576Z,58
2017-01-05T07:00:20.593Z,58
2017-01-05T07:01:26.612Z,58
2017-01-05T07:02:32.637Z,58
2017-01-05T07:03:38.650Z,58
2017-01-05T07:04:44.677Z,58
2017-01-05T07:05:50.698Z,59
2017-01-05T07:06:56.720Z,59
2017-01-05T07:08:02.739Z,59
2017-01-05T07:09:08.759Z,59
2017-01-05T07:10:14.777Z,59
2017-01-05T07:11:20.796Z,59
2017-01-05T07:12:26.822Z,59
2017-01-05T07:13:32.840Z,59
2017-01-05T07:14:38.861Z,59
2017-01-05T07:15:44.892Z,59
2017-01-05T07:16:50.915Z,59
2017-01-05T07:17:56.937Z,59
2017-01-05T07:19:02.956Z,59
2017-01-05T07:20:08.983Z,59
2017-01-05T07:21:14.998Z,59
2017-01-05T07:22:21.016Z,59
2017-01-05T07:23:27.040Z,59
2017-01-05T07:24:33.065Z,59
2017-01-05T07:25:39.084Z,59
2017-01-05T07:26:45.107Z,59
2017-01-05T07:27:51.133Z,59
2017-01-05T07:28:57.151Z,59
2017-01-05T07:30:03.180Z,59
2017-01-05T07:31:09.207Z,59
2017-01-05T07:32:15.231Z,59
2017-01-05T07:33:21.252Z,58
2017-01-05T07:34:27.278Z,58
2017-01-05T07:35:33.299Z,58
2017-01-05T07:36:39.319Z,58
2017-01-05T07:37:45.347Z,58
2017-01-05T07:38:51.364Z,58
2017-01-05T07:39:57.380Z,58
2017-01-05T07:41:03.399Z,58
2017-01-05T07:42:09.432Z,57
2017-01-05T07:43:15.443Z,57
2017-01-05T07:44:21.470Z,57
2017-01-05T07:45:27.490Z,57
2017-01-05T07:46:33.528Z,56
2017-01-05T07:47:39.539Z,56
2017-01-05T07:48:45.574Z,56
2017-01-05T07:49:51.593Z,56
2017-01-05T07:50:57.614Z,56
2017-01-05T07:52:03.637Z,56
2017-01-05T07:53:09.665Z,56
2017-01-05T07:54:15.677Z,55
2017-01-05T07:55:21.698Z,55
2017-01-05T07:56:27.717Z,55
2017-01-05T07:57:33.741Z,55
2017-01-05T07:58:39.767Z,56
2017-01-05T07:59:45.788Z,55
2017-01-05T08:00:51.816Z,55
2017-01-05T08:01:57.834Z,55
2017-01-05T08:03:03.854Z,55
2017-01-05T08:04:09.880Z,55
2017-01-05T08:05:15.910Z,55
2017-01-05T08:06:21.919Z,56
2017-01-05T08:07:27.948Z,56
2017-01-05T08:08:33.974Z,56
2017-01-05T08:09:39.995Z,56
2017-01-05T08:10:46.010Z,56
2017-01-05T08:11:52.029Z,56
2017-01-05T08:12:58.047Z,55
2017-01-05T08:14:04.075Z,55
2017-01-05T08:15:10.090Z,55
2017-01-05T08:16:16.110Z,56
2017-01-05T08:17:22.134Z,55
2017-01-05T08:18:28.156Z,56
2017-01-05T08:19:34.182Z,56
2017-01-05T08:20:40.202Z,56
2017-01-05T08:21:46.225Z,56
2017-01-05T08:22:52.249Z,56
2017-01-05T08:23:58.271Z,56
2017-01-05T08:25:04.294Z,56
2017-01-05T08:26:10.316Z,56
2017-01-05T08:27:16.346Z,56
2017-01-05T08:28:22.369Z,57
2017-01-05T08:29:28.408Z,57
2017-01-05T08:30:34.428Z,57
2017-01-05T08:31:40.447Z,57
2017-01-05T08:32:46.463Z,56
2017-01-05T08:33:52.491Z,56
2017-01-05T08:34:58.515Z,56
2017-01-05T08:36:04.548Z,56
2017-01-05T08:37:10.569Z,56
2017-01-05T08:38:16.606Z,56
2017-01-05T08:39:22.625Z,56
2017-01-05T08:40:28.641Z,56
2017-01-05T08:41:34.661Z,56
2017-01-05T08:42:40.683Z,56
2017-01-05T08:43:46.711Z,56
2017-01-05T08:44:52.737Z,56
2017-01-05T08:45:58.760Z,56
2017-01-05T08:47:04.782Z,56
2017-01-05T08:48:10.805Z,56
2017-01-05T08:49:16.825Z,56
2017-01-05T08:50:22.844Z,56
2017-01-05T08:51:28.873Z,55
2017-01-05T08:52:34.895Z,55
2017-01-05T08:53:40.910Z,55
2017-01-05T08:54:46.938Z,55
2017-01-05T08:55:52.967Z,55
2017-01-05T08:56:58.987Z,55
2017-01-05T08:58:05.008Z,55
2017-01-05T08:59:11.029Z,55
2017-01-05T09:00:17.058Z,55
2017-01-05T09:01:23.084Z,55
2017-01-05T09:02:29.115Z,55
2017-01-05T09:03:35.138Z,55
2017-01-05T09:04:41.164Z,55
2017-01-05T09:05:47.195Z,55
2017-01-05T09:06:53.218Z,55
2017-01-05T09:07:59.240Z,55
2017-01-05T09:09:05.255Z,55
2017-01-05T09:10:11.285Z,55
2017-01-05T09:11:17.293Z,56
2017-01-05T09:12:23.742Z,56
2017-01-05T09:13:29.365Z,56
2017-01-05T09:14:35.395Z,56
2017-01-05T09:15:41.412Z,56
2017-01-05T09:16:47.439Z,56
2017-01-05T09:17:53.454Z,56
2017-01-05T09:18:59.471Z,55
2017-01-05T09:20:05.481Z,56
2017-01-05T09:21:11.504Z,55
2017-01-05T09:22:17.523Z,55
2017-01-05T09:23:23.549Z,55
2017-01-05T09:24:29.568Z,55
2017-01-05T09:25:35.687Z,55
2017-01-05T09:26:41.701Z,55
2017-01-05T09:27:47.719Z,55
2017-01-05T09:28:53.738Z,55
2017-01-05T09:29:59.753Z,54
2017-01-05T09:31:05.772Z,54
2017-01-05T09:32:11.794Z,55
2017-01-05T09:33:17.816Z,55
2017-01-05T09:34:23.833Z,55
2017-01-05T09:35:29.858Z,55
2017-01-05T09:36:35.903Z,55
2017-01-05T09:37:41.899Z,55
2017-01-05T09:38:47.911Z,55
2017-01-05T09:39:53.947Z,55
2017-01-05T09:40:59.964Z,55
2017-01-05T09:42:05.981Z,55
2017-01-05T09:43:11.992Z,55
2017-01-05T09:44:18.013Z,55
2017-01-05T09:45:24.038Z,55
2017-01-05T09:46:30.062Z,54
2017-01-05T09:47:36.083Z,54
2017-01-05T09:48:42.092Z,54
2017-01-05T09:49:48.113Z,54
2017-01-05T09:50:54.135Z,54
2017-01-05T09:52:00.151Z,54
2017-01-05T09:53:06.175Z,54
2017-01-05T09:54:12.195Z,54
2017-01-05T09:55:18.221Z,54
2017-01-05T09:56:24.474Z,53
2017-01-05T09:57:30.490Z,53
2017-01-05T09:58:36.513Z,53
2017-01-05T09:59:42.518Z,54
2017-01-05T10:00:48.540Z,54
2017-01-05T10:01:54.556Z,53
2017-01-05T10:03:00.568Z,53
2017-01-05T10:04:06.587Z,53
2017-01-05T10:05:12.609Z,53
2017-01-05T10:06:18.637Z,53
2017-01-05T10:07:24.658Z,53
2017-01-05T10:08:30.682Z,52
2017-01-05T10:09:36.700Z,52
2017-01-05T10:10:42.716Z,52
2017-01-05T10:11:48.746Z,51
2017-01-05T10:12:54.767Z,51
2017-01-05T10:14:00.783Z,51
2017-01-05T10:15:06.801Z,51
2017-01-05T10:16:12.824Z,49
2017-01-05T10:17:18.845Z,49
2017-01-05T10:18:24.888Z,48
2017-01-05T10:19:30.907Z,47
2017-01-05T10:20:36.931Z,46
2017-01-05T10:21:42.954Z,46
2017-01-05T10:22:48.973Z,45
2017-01-05T10:23:54.988Z,46
2017-01-05T10:25:01.010Z,46
2017-01-05T10:26:07.035Z,45
2017-01-05T10:27:13.050Z,46
2017-01-05T10:28:19.073Z,45
2017-01-05T10:29:28.702Z,44
2017-01-05T10:30:34.723Z,44
2017-01-05T10:31:40.743Z,42
2017-01-05T10:32:46.768Z,42
2017-01-05T10:33:52.798Z,42
2017-01-05T10:34:58.810Z,43
2017-01-05T10:36:05.248Z,43
2017-01-05T10:37:11.247Z,43
2017-01-05T10:38:17.276Z,43
2017-01-05T10:39:23.287Z,42
2017-01-05T10:40:29.316Z,43
2017-01-05T10:41:35.331Z,44
2017-01-05T10:42:41.358Z,44
2017-01-05T10:43:47.370Z,43
2017-01-05T10:44:53.387Z,43
2017-01-05T10:45:59.404Z,42
2017-01-05T10:47:05.433Z,40
2017-01-05T10:48:11.453Z,41
2017-01-05T10:49:17.463Z,40
2017-01-05T10:50:23.483Z,40
2017-01-05T10:51:29.492Z,40
2017-01-05T10:52:35.514Z,40
2017-01-05T10:53:41.532Z,40
2017-01-05T10:54:47.557Z,40
2017-01-05T10:55:53.582Z,40
2017-01-05T10:56:59.609Z,40
2017-01-05T10:58:05.619Z,34
2017-01-05T10:59:11.639Z,29
2017-01-05T11:00:17.661Z,34
2017-01-05T11:01:23.685Z,33
2017-01-05T11:02:29.695Z,29
2017-01-05T11:03:35.720Z,29
2017-01-05T11:04:41.741Z,29
2017-01-05T11:05:47.765Z,29
2017-01-05T11:06:53.775Z,29
2017-01-05T11:07:59.803Z,29
2017-01-05T11:09:05.820Z,29
2017-01-05T11:10:11.836Z,29
2017-01-05T11:11:17.861Z,29
2017-01-05T11:12:23.887Z,29
2017-01-05T11:13:29.913Z,29
2017-01-05T11:14:35.934Z,29
2017-01-05T11:15:41.957Z,29
2017-01-05T11:16:47.970Z,29
2017-01-05T11:17:53.994Z,29
2017-01-05T11:19:00.012Z,29
2017-01-05T11:20:06.199Z,29
2017-01-05T11:21:12.221Z,29
2017-01-05T11:22:18.244Z,29
2017-01-05T11:23:24.267Z,29
2017-01-05T11:24:30.284Z,29
2017-01-05T11:25:36.303Z,29
2017-01-05T11:26:42.753Z,29
2017-01-05T11:27:48.502Z,29
2017-01-05T11:28:54.519Z,29
2017-01-05T11:30:00.542Z,29
2017-01-05T11:31:06.641Z,29
2017-01-05T11:32:12.663Z,29
2017-01-05T11:33:18.683Z,29
2017-01-05T11:34:24.959Z,29
2017-01-05T11:35:30.975Z,29
2017-01-05T11:36:36.986Z,29
2017-01-05T11:37:43.009Z,29
2017-01-05T11:38:49.030Z,29
2017-01-05T11:39:55.604Z,29
2017-01-05T11:41:01.324Z,29
2017-01-05T11:42:07.337Z,29
2017-01-05T11:43:13.363Z,29
2017-01-05T11:44:19.382Z,29
2017-01-05T11:45:25.404Z,29
2017-01-05T11:46:31.418Z,29
2017-01-05T11:47:37.432Z,29
2017-01-05T11:48:43.460Z,29
2017-01-05T11:49:49.660Z,29
2017-01-05T11:50:55.526Z,29
2017-01-05T11:52:01.551Z,29
2017-01-05T11:53:07.576Z,29
2017-01-05T11:54:13.585Z,29
2017-01-05T11:55:19.602Z,29
2017-01-05T11:56:25.623Z,29
2017-01-05T11:57:31.636Z,29
2017-01-05T11:58:37.662Z,29
2017-01-05T11:59:43.693Z,28
2017-01-05T12:00:49.711Z,28
2017-01-05T12:01:55.740Z,28
2017-01-05T12:03:01.757Z,29
2017-01-05T12:04:07.773Z,29
2017-01-05T12:05:13.791Z,29
2017-01-05T12:06:19.815Z,28
2017-01-05T12:07:25.832Z,28
2017-01-05T12:08:31.847Z,28
2017-01-05T12:09:37.871Z,28
2017-01-05T12:10:43.901Z,28
2017-01-05T12:11:49.908Z,28
2017-01-05T12:12:55.929Z,27
2017-01-05T12:14:01.952Z,27
2017-01-05T12:15:07.966Z,28
2017-01-05T12:16:13.984Z,27
2017-01-05T12:17:20.141Z,28
2017-01-05T12:18:26.098Z,28
2017-01-05T12:19:32.039Z,27
2017-01-05T12:20:38.064Z,27
2017-01-05T12:21:44.161Z,27
2017-01-05T12:22:50.170Z,27
2017-01-05T12:23:56.199Z,27
2017-01-05T12:25:02.220Z,27
2017-01-05T12:26:08.430Z,27
2017-01-05T12:27:14.379Z,27
2017-01-05T12:28:20.418Z,27
2017-01-05T12:29:26.462Z,27
2017-01-05T12:30:32.454Z,28
2017-01-05T12:31:38.477Z,27
2017-01-05T12:32:44.501Z,27
2017-01-05T12:33:50.522Z,27
2017-01-05T12:34:56.886Z,27
2017-01-05T12:36:02.579Z,27
2017-01-05T12:37:08.689Z,27
2017-01-05T12:38:14.708Z,27
2017-01-05T12:39:20.724Z,27
2017-01-05T12:40:26.746Z,27
2017-01-05T12:41:32.771Z,27
2017-01-05T12:42:38.796Z,27
2017-01-05T12:43:44.815Z,27
2017-01-05T12:44:50.824Z,27
2017-01-05T12:45:56.851Z,27
2017-01-05T12:47:02.876Z,27
2017-01-05T12:48:08.900Z,27
2017-01-05T12:49:14.919Z,27
2017-01-05T12:50:20.941Z,28
2017-01-05T12:51:26.964Z,28
2017-01-05T12:52:32.979Z,28
2017-01-05T12:53:38.995Z,28
2017-01-05T12:54:45.017Z,28
2017-01-05T12:55:51.033Z,28
2017-01-05T12:56:57.064Z,28
2017-01-05T12:58:03.078Z,29
2017-01-05T12:59:09.097Z,29
2017-01-05T13:00:15.112Z,29
2017-01-05T13:01:21.125Z,29
2017-01-05T13:02:27.147Z,29
2017-01-05T13:03:33.182Z,29
2017-01-05T13:04:39.182Z,29
2017-01-05T13:05:45.200Z,29
2017-01-05T13:06:51.223Z,29
2017-01-05T13:07:57.405Z,29
2017-01-05T13:09:03.275Z,29
2017-01-05T13:10:09.287Z,29
2017-01-05T13:11:15.318Z,29
2017-01-05T13:12:21.337Z,29
2017-01-05T13:13:27.364Z,29
2017-01-05T13:14:33.378Z,29
2017-01-05T13:15:39.410Z,29
2017-01-05T13:16:45.651Z,29
2017-01-05T13:17:51.671Z,30
2017-01-05T13:18:57.693Z,30
2017-01-05T13:20:03.707Z,30
2017-01-05T13:21:09.724Z,30
2017-01-05T13:22:15.752Z,30
2017-01-05T13:23:21.784Z,30
2017-01-05T13:24:27.804Z,30
2017-01-05T13:25:33.821Z,30
2017-01-05T13:26:39.843Z,30
2017-01-05T13:27:45.879Z,30
2017-01-05T13:28:51.888Z,30
2017-01-05T13:29:57.919Z,30
2017-01-05T13:31:04.133Z,30
2017-01-05T13:32:10.151Z,30
2017-01-05T13:33:16.169Z,30
2017-01-05T13:34:22.194Z,30
2017-01-05T13:35:28.205Z,30
2017-01-05T13:36:34.228Z,30
2017-01-05T13:37:40.259Z,30
2017-01-05T13:38:46.282Z,30
2017-01-05T13:39:52.467Z,30
2017-01-05T13:40:58.359Z,30
2017-01-05T13:42:04.373Z,30
2017-01-05T13:43:10.401Z,30
2017-01-05T13:44:16.418Z,30
2017-01-05T13:45:22.436Z,30
2017-01-05T13:46:28.451Z,30
2017-01-05T13:47:34.469Z,30
2017-01-05T13:48:40.493Z,30
2017-01-05T13:49:46.517Z,30
2017-01-05T13:50:52.544Z,30
2017-01-05T13:51:58.562Z,30
2017-01-05T13:53:04.580Z,30
2017-01-05T13:54:10.613Z,30
2017-01-05T13:55:16.624Z,30
2017-01-05T13:56:22.646Z,30
2017-01-05T13:57:28.668Z,30
2017-01-05T13:58:34.698Z,30
2017-01-05T13:59:40.720Z,30
2017-01-05T14:00:46.731Z,30
2017-01-05T14:01:52.749Z,30
2017-01-05T14:02:58.772Z,30
2017-01-05T14:04:04.797Z,30
2017-01-05T14:05:10.819Z,30
2017-01-05T14:06:16.838Z,30
2017-01-05T14:07:22.863Z,30
2017-01-05T14:08:28.886Z,30
2017-01-05T14:09:34.915Z,30
2017-01-05T14:10:40.935Z,30
2017-01-05T14:11:46.953Z,30
2017-01-05T14:12:52.975Z,30
2017-01-05T14:13:58.988Z,30
2017-01-05T14:15:05.008Z,30
2017-01-05T14:16:11.030Z,30
2017-01-05T14:17:17.061Z,30
2017-01-05T14:18:23.080Z,30
2017-01-05T14:19:29.105Z,30
2017-01-05T14:20:35.124Z,30
2017-01-05T14:21:41.149Z,30
2017-01-05T14:22:47.170Z,30
2017-01-05T14:23:53.188Z,30
2017-01-05T14:24:59.208Z,30
2017-01-05T14:26:05.235Z,30
2017-01-05T14:27:11.252Z,30
2017-01-05T14:28:17.270Z,30
2017-01-05T14:29:23.291Z,30
2017-01-05T14:30:29.315Z,30
2017-01-05T14:31:35.339Z,30
2017-01-05T14:32:41.362Z,30
2017-01-05T14:33:47.379Z,30
2017-01-05T14:34:53.416Z,30
2017-01-05T14:35:59.431Z,30
2017-01-05T14:37:05.458Z,30
2017-01-05T14:38:11.477Z,30
2017-01-05T14:39:17.507Z,30
2017-01-05T14:40:23.525Z,30
2017-01-05T14:41:29.545Z,30
2017-01-05T14:42:35.560Z,30
2017-01-05T14:43:41.591Z,30
2017-01-05T14:44:47.612Z,30
2017-01-05T14:45:53.633Z,30
2017-01-05T14:46:59.661Z,30
2017-01-05T14:48:05.687Z,30
2017-01-05T14:49:11.709Z,30
2017-01-05T14:50:17.727Z,30
2017-01-05T14:51:23.753Z,30
2017-01-05T14:52:29.773Z,30
2017-01-05T14:53:35.795Z,30
2017-01-05T14:54:41.827Z,30
2017-01-05T14:55:47.854Z,30
2017-01-05T14:56:53.872Z,30
2017-01-05T14:57:59.899Z,30
2017-01-05T14:59:05.919Z,30
2017-01-05T15:00:11.936Z,30
2017-01-05T15:01:17.952Z,30
2017-01-05T15:02:23.981Z,30
2017-01-05T15:03:29.995Z,30
2017-01-05T15:04:36.016Z,30
2017-01-05T15:05:42.039Z,30
2017-01-05T15:06:48.070Z,30
2017-01-05T15:07:54.086Z,30
2017-01-05T15:09:00.106Z,30
2017-01-05T15:10:06.132Z,30
2017-01-05T15:11:12.146Z,30
2017-01-05T15:12:18.158Z,30
2017-01-05T15:13:24.182Z,30
2017-01-05T15:14:30.205Z,30
2017-01-05T15:15:36.230Z,30
2017-01-05T15:16:42.253Z,30
2017-01-05T15:17:48.272Z,30
2017-01-05T15:18:54.298Z,30
2017-01-05T15:20:00.318Z,30
2017-01-05T15:21:06.334Z,30
2017-01-05T15:22:12.353Z,30
2017-01-05T15:23:18.378Z,30
2017-01-05T15:24:24.404Z,30
2017-01-05T15:25:30.425Z,30
2017-01-05T15:26:36.450Z,30
2017-01-05T15:27:42.476Z,30
2017-01-05T15:28:48.492Z,30
2017-01-05T15:29:54.511Z,30
2017-01-05T15:31:00.540Z,30
2017-01-05T15:32:06.566Z,30
2017-01-05T15:33:12.588Z,30
2017-01-05T15:34:18.610Z,30
2017-01-05T15:35:24.633Z,30
2017-01-05T15:36:30.658Z,30
2017-01-05T15:37:36.685Z,30
2017-01-05T15:38:42.708Z,30
2017-01-05T15:39:48.730Z,30
2017-01-05T15:40:54.744Z,30